Terminal Aerodrome Forecast
Issued by NWS

Home | Current Version | Previous Version | Text Only | Print | Product List | Glossary Off
Versions: 1 2 3 4 5 6 7 8 9 10 11 12 13 14 15 16 17 18 19 20

000
FTUS41 KCLE 252300
TAFFDY
TAF
KFDY 252325Z 2600/2624 18004KT P6SM BKN200
     FM260400 19004KT P6SM BKN120
      TEMPO 2606/2609 6SM BR
     FM260900 20004KT 6SM BR SCT250
      TEMPO 2609/2613 3SM BR
     FM261400 25008KT P6SM SCT045 BKN250=

USA.gov is the U.S. government's official web portal to all federal, state and local government web resources and services.